Time;durP1;ratioP1;P1;durP2;ratioP2;P2;SDS_P1;SDS_P2;PMS_P1;PMS_P2;Temp;Humidity;BMP_temperature;BMP_pressure;BME280_temperature;BME280_humidity;BME280_pressure;Samples;Min_cycle;Max_cycle;Signal;HPM_P1;HPM_P2
2022/09/11 00:01:55;;;;;;;3.70;3.40;;;22.10;99.90;;;;;;4162409;28;20879;-72
2022/09/11 00:03:58;;;;;;;5.22;3.83;;;22.10;99.90;;;;;;4161657;28;20224;-71
2022/09/11 00:06:02;;;;;;;3.67;3.38;;;22.10;99.90;;;;;;4147018;28;20275;-72
2022/09/11 00:08:04;;;;;;;3.75;3.40;;;22.10;99.90;;;;;;4146634;28;20225;-72
2022/09/11 00:10:07;;;;;;;4.43;3.70;;;22.10;99.90;;;;;;4147112;28;20229;-72
2022/09/11 00:12:11;;;;;;;3.67;3.38;;;22.10;99.90;;;;;;4147323;28;20279;-72
2022/09/11 00:14:14;;;;;;;4.28;3.30;;;22.10;99.90;;;;;;4146999;28;20289;-72
2022/09/11 00:16:20;;;;;;;3.40;3.10;;;22.10;99.90;;;;;;4144094;28;20213;-72
2022/09/11 00:18:23;;;;;;;3.97;3.40;;;22.10;99.90;;;;;;4146810;28;20240;-72
2022/09/11 00:20:25;;;;;;;3.67;3.35;;;22.10;99.90;;;;;;4146759;28;20593;-72
2022/09/11 00:22:28;;;;;;;4.05;3.42;;;22.10;99.90;;;;;;4147133;28;20218;-72
2022/09/11 00:24:30;;;;;;;3.92;3.55;;;22.10;99.90;;;;;;4147054;28;20225;-72
2022/09/11 00:26:32;;;;;;;5.75;3.70;;;22.10;99.90;;;;;;4147113;28;20977;-72
2022/09/11 00:28:36;;;;;;;3.90;3.45;;;22.10;99.90;;;;;;4146725;28;20620;-72
2022/09/11 00:30:39;;;;;;;4.15;3.55;;;22.10;99.90;;;;;;4146115;28;20267;-72
2022/09/11 00:32:41;;;;;;;3.60;3.28;;;22.10;99.90;;;;;;4144664;28;20225;-72
2022/09/11 00:34:45;;;;;;;3.50;3.20;;;22.10;99.90;;;;;;4146877;28;20225;-72
2022/09/11 00:36:47;;;;;;;3.88;3.40;;;22.00;99.90;;;;;;4146779;28;20275;-72
2022/09/11 00:38:51;;;;;;;4.57;3.78;;;22.00;99.90;;;;;;4146549;28;20271;-72
2022/09/11 00:40:54;;;;;;;3.40;3.10;;;22.00;99.90;;;;;;4146886;28;20229;-72
2022/09/11 00:42:56;;;;;;;4.00;3.60;;;22.10;99.90;;;;;;4147091;28;20247;-72
2022/09/11 00:45:03;;;;;;;4.55;3.40;;;22.10;99.90;;;;;;4146563;28;20275;-72
2022/09/11 00:47:08;;;;;;;4.00;3.60;;;22.10;99.90;;;;;;4136015;28;20291;-72
2022/09/11 00:49:21;;;;;;;3.35;3.05;;;22.10;99.90;;;;;;4146149;28;20217;-72
2022/09/11 00:51:29;;;;;;;3.92;3.53;;;22.10;99.90;;;;;;4143813;28;20274;-72
2022/09/11 00:53:36;;;;;;;4.03;3.22;;;22.00;99.90;;;;;;4134002;28;20286;-72
2022/09/11 00:55:43;;;;;;;3.55;3.25;;;22.00;99.90;;;;;;4146770;28;20221;-72
2022/09/11 00:57:49;;;;;;;3.55;3.25;;;22.00;99.90;;;;;;4146494;28;20264;-72
2022/09/11 00:59:57;;;;;;;3.35;3.05;;;22.00;99.90;;;;;;4146070;28;20252;-72
2022/09/11 01:02:01;;;;;;;3.97;3.58;;;22.00;99.90;;;;;;4146746;28;20220;-72
2022/09/11 01:04:05;;;;;;;3.72;3.33;;;22.00;99.90;;;;;;4146228;28;20221;-72
2022/09/11 01:06:09;;;;;;;3.72;3.20;;;22.10;99.90;;;;;;4146298;28;20217;-72
2022/09/11 01:08:13;;;;;;;4.68;3.70;;;22.00;99.90;;;;;;4144205;28;20225;-72
2022/09/11 01:10:15;;;;;;;3.78;3.42;;;22.00;99.90;;;;;;4146221;28;20612;-72
2022/09/11 01:12:23;;;;;;;4.20;3.80;;;22.00;99.90;;;;;;4146324;28;20221;-72
2022/09/11 01:14:38;;;;;;;3.92;3.33;;;22.00;99.90;;;;;;4142999;28;20600;-72
2022/09/11 01:16:48;;;;;;;4.03;3.63;;;22.00;99.90;;;;;;4146434;28;20310;-72
2022/09/11 01:19:16;;;;;;;3.58;3.28;;;22.00;99.90;;;;;;4146251;28;20245;-72
2022/09/11 01:21:41;;;;;;;5.15;3.65;;;22.00;99.90;;;;;;4145698;28;20276;-72
2022/09/11 01:24:02;;;;;;;4.95;3.40;;;22.00;99.90;;;;;;4144365;28;20312;-72
2022/09/11 01:26:33;;;;;;;4.38;3.63;;;22.00;99.90;;;;;;4134097;28;20224;-72
2022/09/11 01:28:42;;;;;;;3.80;3.17;;;22.00;99.90;;;;;;4146134;28;20221;-72
2022/09/11 01:30:49;;;;;;;3.40;3.10;;;22.00;99.90;;;;;;4145891;28;20283;-72
2022/09/11 01:33:12;;;;;;;3.78;3.40;;;22.00;99.90;;;;;;4146103;28;20764;-72
2022/09/11 01:35:20;;;;;;;3.45;3.15;;;22.00;99.90;;;;;;4146050;28;20221;-72
2022/09/11 01:37:27;;;;;;;3.40;3.10;;;22.00;99.90;;;;;;4145788;28;20251;-72
2022/09/11 01:39:38;;;;;;;3.50;3.20;;;22.00;99.90;;;;;;4145729;28;20229;-72
2022/09/11 01:41:47;;;;;;;3.50;3.20;;;22.00;99.90;;;;;;4143804;28;20218;-72
2022/09/11 01:43:55;;;;;;;3.67;3.30;;;22.00;99.90;;;;;;4133575;28;20217;-72
2022/09/11 01:46:01;;;;;;;3.60;3.30;;;22.00;99.90;;;;;;4145571;28;20217;-72
2022/09/11 01:48:04;;;;;;;3.80;3.50;;;21.90;99.90;;;;;;4145103;28;20272;-72
2022/09/11 01:50:10;;;;;;;3.50;3.17;;;22.00;99.90;;;;;;4145417;28;20244;-72
2022/09/11 01:52:18;;;;;;;4.20;3.30;;;22.00;99.90;;;;;;4146106;28;20225;-72
2022/09/11 01:54:23;;;;;;;3.42;3.13;;;22.00;99.90;;;;;;4146086;28;20225;-72
2022/09/11 01:56:30;;;;;;;3.83;3.28;;;22.00;99.90;;;;;;4145719;28;20217;-72
2022/09/11 01:58:35;;;;;;;3.67;3.38;;;22.00;99.90;;;;;;4135667;28;20284;-72
2022/09/11 02:00:42;;;;;;;3.25;2.95;;;21.90;99.90;;;;;;4137590;28;20676;-72
2022/09/11 02:02:49;;;;;;;3.70;3.03;;;22.00;99.90;;;;;;4145931;28;20272;-72
2022/09/11 02:04:59;;;;;;;3.45;3.10;;;21.90;99.90;;;;;;4153272;28;21086;-72
2022/09/11 02:07:07;;;;;;;3.33;2.97;;;21.90;99.90;;;;;;4162028;28;20216;-72
2022/09/11 02:09:13;;;;;;;3.95;3.22;;;22.00;99.90;;;;;;4162193;28;20212;-72
2022/09/11 02:11:17;;;;;;;3.53;3.22;;;21.90;99.90;;;;;;4160642;28;20279;-72
2022/09/11 02:13:28;;;;;;;4.82;3.22;;;22.00;99.90;;;;;;4159986;28;20220;-72
2022/09/11 02:15:42;;;;;;;3.97;3.35;;;22.00;99.90;;;;;;4153288;28;20639;-72
2022/09/11 02:17:51;;;;;;;3.83;3.25;;;22.00;99.90;;;;;;4159615;28;20232;-72
2022/09/11 02:19:56;;;;;;;3.75;3.00;;;22.00;99.90;;;;;;4155375;28;20221;-72
2022/09/11 02:21:59;;;;;;;3.38;2.95;;;21.90;99.90;;;;;;4157749;28;20243;-72
2022/09/11 02:24:02;;;;;;;5.20;3.30;;;21.90;99.90;;;;;;4161527;28;20267;-72
2022/09/11 02:26:06;;;;;;;4.13;3.50;;;21.90;99.90;;;;;;4161385;28;20731;-72
2022/09/11 02:28:08;;;;;;;4.38;3.40;;;22.00;99.90;;;;;;4161933;28;20270;-72
2022/09/11 02:30:13;;;;;;;3.45;3.15;;;22.00;99.90;;;;;;4151412;28;20348;-72
2022/09/11 02:32:17;;;;;;;3.38;3.08;;;21.90;99.90;;;;;;4158021;28;20273;-72
2022/09/11 02:34:25;;;;;;;3.53;3.22;;;21.90;99.90;;;;;;4161797;28;20224;-72
2022/09/11 02:36:54;;;;;;;3.30;3.00;;;21.90;99.90;;;;;;4161582;28;20216;-72
2022/09/11 02:39:09;;;;;;;3.53;3.22;;;21.90;99.90;;;;;;4161534;28;20286;-71
2022/09/11 02:41:16;;;;;;;3.67;2.75;;;21.90;99.90;;;;;;4161596;28;20224;-72
2022/09/11 02:43:38;;;;;;;3.50;3.20;;;21.90;99.90;;;;;;4163823;28;20261;-72
2022/09/11 02:45:53;;;;;;;4.18;3.40;;;21.90;99.90;;;;;;4159831;28;20289;-72
2022/09/11 02:48:04;;;;;;;3.15;2.78;;;21.90;99.90;;;;;;4162361;28;20350;-72
2022/09/11 02:50:16;;;;;;;4.28;3.20;;;21.90;99.90;;;;;;4168073;28;20207;-72
2022/09/11 02:52:30;;;;;;;3.53;3.17;;;21.90;99.90;;;;;;4156896;28;20213;-72
2022/09/11 02:54:42;;;;;;;3.35;3.05;;;21.90;99.90;;;;;;4156775;28;20220;-72
2022/09/11 02:56:48;;;;;;;3.53;3.22;;;21.90;99.90;;;;;;4161547;28;20228;-72
2022/09/11 02:58:54;;;;;;;3.63;3.00;;;21.90;99.90;;;;;;4161058;28;20291;-72
2022/09/11 03:00:58;;;;;;;3.35;3.03;;;21.90;99.90;;;;;;4161437;28;20220;-72
2022/09/11 03:03:01;;;;;;;3.60;3.30;;;21.90;99.90;;;;;;4161476;28;20225;-72
2022/09/11 03:05:03;;;;;;;3.60;2.90;;;21.90;99.90;;;;;;4170783;28;20304;-72
2022/09/11 03:07:08;;;;;;;3.78;3.05;;;21.90;99.90;;;;;;4177113;28;20279;-72
2022/09/11 03:09:10;;;;;;;4.07;3.22;;;21.90;99.90;;;;;;4177776;28;20220;-72
2022/09/11 03:11:14;;;;;;;3.50;3.13;;;21.90;99.90;;;;;;4177379;28;20285;-72
2022/09/11 03:13:16;;;;;;;3.60;2.90;;;21.90;99.90;;;;;;4177248;28;20274;-72
2022/09/11 03:15:19;;;;;;;3.15;2.88;;;21.90;99.90;;;;;;4177872;28;20220;-72
2022/09/11 03:17:21;;;;;;;3.08;2.83;;;21.90;99.90;;;;;;4177447;28;20227;-72
2022/09/11 03:19:24;;;;;;;3.95;3.55;;;21.90;99.90;;;;;;4178055;28;20285;-72
2022/09/11 03:21:26;;;;;;;3.42;2.90;;;21.90;99.90;;;;;;4177589;28;20224;-72
2022/09/11 03:23:30;;;;;;;3.33;3.03;;;21.90;99.90;;;;;;4167928;28;20224;-72
2022/09/11 03:25:32;;;;;;;3.38;3.03;;;21.90;99.90;;;;;;4172886;28;20250;-72
2022/09/11 03:27:36;;;;;;;3.20;2.85;;;21.90;99.90;;;;;;4177637;28;20228;-72
2022/09/11 03:29:39;;;;;;;4.13;3.10;;;21.90;99.90;;;;;;4177781;28;20220;-72
2022/09/11 03:31:41;;;;;;;3.20;2.90;;;21.90;99.90;;;;;;4178319;28;20223;-72
2022/09/11 03:33:44;;;;;;;3.67;3.35;;;21.90;99.90;;;;;;4179788;28;20224;-72
2022/09/11 03:35:47;;;;;;;3.83;3.15;;;21.90;99.90;;;;;;4179225;28;20312;-72
2022/09/11 03:37:49;;;;;;;3.20;2.90;;;21.90;99.90;;;;;;4179138;28;20671;-72
2022/09/11 03:39:53;;;;;;;3.10;2.90;;;21.90;99.90;;;;;;4179509;28;20240;-72
2022/09/11 03:41:57;;;;;;;3.30;3.00;;;21.90;99.90;;;;;;4180511;28;20219;-72
2022/09/11 03:43:59;;;;;;;3.38;3.08;;;21.80;99.90;;;;;;4176419;28;20216;-72
2022/09/11 03:46:01;;;;;;;4.10;3.35;;;21.80;99.90;;;;;;4180546;28;20281;-72
2022/09/11 03:48:05;;;;;;;3.08;2.78;;;21.90;99.90;;;;;;4180419;28;20278;-72
2022/09/11 03:50:08;;;;;;;3.20;2.90;;;21.90;99.90;;;;;;4180201;28;20212;-72
2022/09/11 03:52:10;;;;;;;3.63;3.33;;;21.80;99.90;;;;;;4180340;28;20254;-72
2022/09/11 03:54:14;;;;;;;3.83;3.45;;;21.90;99.90;;;;;;4180552;28;20223;-72
2022/09/11 03:56:17;;;;;;;4.13;3.45;;;21.90;99.90;;;;;;4180491;28;20246;-72
2022/09/11 03:58:20;;;;;;;3.35;3.05;;;21.80;99.90;;;;;;4166018;28;20988;-72
2022/09/11 04:00:22;;;;;;;3.40;3.10;;;21.80;99.90;;;;;;4180292;28;20293;-72
2022/09/11 04:02:24;;;;;;;4.28;3.03;;;21.80;99.90;;;;;;4180184;28;20224;-72
2022/09/11 04:04:27;;;;;;;3.42;3.05;;;21.80;99.90;;;;;;4179808;28;20337;-72
2022/09/11 04:06:29;;;;;;;3.53;3.22;;;21.80;99.90;;;;;;4178677;28;20216;-72
2022/09/11 04:08:33;;;;;;;3.85;3.40;;;21.80;99.90;;;;;;4180178;28;20246;-72
2022/09/11 04:10:35;;;;;;;3.60;2.92;;;21.80;99.90;;;;;;4180236;28;20266;-72
2022/09/11 04:12:38;;;;;;;3.58;3.28;;;21.80;99.90;;;;;;4179519;28;20220;-72
2022/09/11 04:14:41;;;;;;;3.97;3.50;;;21.80;99.90;;;;;;4179344;28;20215;-72
2022/09/11 04:16:43;;;;;;;3.80;3.00;;;21.80;99.90;;;;;;4179865;28;20220;-72
2022/09/11 04:18:47;;;;;;;3.88;3.33;;;21.80;99.90;;;;;;4180092;28;20220;-72
2022/09/11 04:20:50;;;;;;;4.05;3.33;;;21.80;99.90;;;;;;4179741;28;20224;-72
2022/09/11 04:22:52;;;;;;;3.78;3.42;;;21.80;99.90;;;;;;4180264;28;20223;-72
2022/09/11 04:24:54;;;;;;;3.17;2.97;;;21.80;99.90;;;;;;4180204;28;20731;-72
2022/09/11 04:26:58;;;;;;;3.38;3.08;;;21.80;99.90;;;;;;4179052;28;20227;-72
2022/09/11 04:29:02;;;;;;;3.40;3.05;;;21.80;99.90;;;;;;4178762;28;20269;-72
2022/09/11 04:31:04;;;;;;;2.97;2.78;;;21.80;99.90;;;;;;4176790;28;20588;-72
2022/09/11 04:33:07;;;;;;;3.67;3.30;;;21.80;99.90;;;;;;4176333;28;22022;-72
2022/09/11 04:35:09;;;;;;;3.63;3.33;;;21.80;99.90;;;;;;4177008;28;20278;-72
2022/09/11 04:37:12;;;;;;;3.45;3.15;;;21.80;99.90;;;;;;4178280;28;20253;-72
2022/09/11 04:39:14;;;;;;;3.30;3.00;;;21.80;99.90;;;;;;4178826;28;20306;-72
2022/09/11 04:41:16;;;;;;;4.22;3.20;;;21.80;99.90;;;;;;4178619;28;20220;-72
2022/09/11 04:43:19;;;;;;;3.40;3.10;;;21.80;99.90;;;;;;4177100;28;20212;-72
2022/09/11 04:45:23;;;;;;;3.72;3.20;;;21.80;99.90;;;;;;4178168;28;20228;-72
2022/09/11 04:47:25;;;;;;;3.15;2.85;;;21.80;99.90;;;;;;4177096;28;20219;-72
2022/09/11 04:49:27;;;;;;;3.55;3.20;;;21.80;99.90;;;;;;4177305;28;20216;-72
2022/09/11 04:51:32;;;;;;;3.42;3.10;;;21.80;99.90;;;;;;4178258;28;20227;-72
2022/09/11 04:53:36;;;;;;;3.33;3.00;;;21.80;99.90;;;;;;4176019;28;20216;-72
2022/09/11 04:55:38;;;;;;;3.80;3.40;;;21.80;99.90;;;;;;4177996;28;20234;-72
2022/09/11 04:57:40;;;;;;;4.07;3.33;;;21.80;99.90;;;;;;4177636;28;20228;-72
2022/09/11 04:59:43;;;;;;;4.07;3.50;;;21.80;99.90;;;;;;4177452;28;20293;-72
2022/09/11 05:01:46;;;;;;;4.13;3.22;;;21.80;99.90;;;;;;4177703;28;20297;-72
2022/09/11 05:03:49;;;;;;;3.70;3.25;;;21.80;99.90;;;;;;4178130;28;20273;-72
2022/09/11 05:05:51;;;;;;;3.30;3.00;;;21.80;99.90;;;;;;4174829;28;20251;-72
2022/09/11 05:07:53;;;;;;;3.42;3.03;;;21.80;99.90;;;;;;4178152;28;20664;-72
2022/09/11 05:09:56;;;;;;;3.67;3.38;;;21.80;99.90;;;;;;4177774;28;20223;-72
2022/09/11 05:11:58;;;;;;;3.75;3.10;;;21.80;99.90;;;;;;4178055;28;20215;-72
2022/09/11 05:14:01;;;;;;;3.70;3.40;;;21.80;99.90;;;;;;4177674;28;20249;-72
2022/09/11 05:16:03;;;;;;;4.20;3.40;;;21.80;99.90;;;;;;4176815;28;20219;-72
2022/09/11 05:18:07;;;;;;;3.15;2.80;;;21.80;99.90;;;;;;4177605;28;20262;-72
2022/09/11 05:20:10;;;;;;;3.50;3.20;;;21.80;99.90;;;;;;4178052;28;20255;-72
2022/09/11 05:22:14;;;;;;;3.60;3.30;;;21.80;99.90;;;;;;4172925;28;20224;-72
2022/09/11 05:24:16;;;;;;;4.40;3.60;;;21.80;99.90;;;;;;4177824;28;20273;-72
2022/09/11 05:26:23;;;;;;;3.63;3.33;;;21.80;99.90;;;;;;4177854;28;20269;-72
2022/09/11 05:28:26;;;;;;;3.38;3.08;;;21.80;99.90;;;;;;4177799;28;20219;-72
2022/09/11 05:30:29;;;;;;;3.83;3.28;;;21.80;99.90;;;;;;4178272;28;20669;-72
2022/09/11 05:32:31;;;;;;;3.17;2.88;;;21.80;99.90;;;;;;4175898;28;20283;-72
2022/09/11 05:34:35;;;;;;;3.70;3.40;;;21.80;99.90;;;;;;4179029;28;20270;-73
2022/09/11 05:36:37;;;;;;;3.80;3.30;;;21.80;99.90;;;;;;4178586;28;20220;-72
2022/09/11 05:38:40;;;;;;;3.83;3.25;;;21.80;99.90;;;;;;4177111;28;20269;-72
2022/09/11 05:40:44;;;;;;;3.70;3.40;;;21.80;99.90;;;;;;4165718;28;20252;-72
2022/09/11 05:42:46;;;;;;;4.03;3.33;;;21.80;99.90;;;;;;4177347;28;20212;-72
2022/09/11 05:44:49;;;;;;;3.47;3.17;;;21.80;99.90;;;;;;4183388;28;20220;-72
2022/09/11 05:46:52;;;;;;;3.60;3.25;;;21.80;99.90;;;;;;4174603;28;20657;-72
2022/09/11 05:48:54;;;;;;;3.58;3.28;;;21.80;99.90;;;;;;4178406;28;20223;-72
2022/09/11 05:51:00;;;;;;;2.97;2.78;;;21.80;99.90;;;;;;4170393;28;20212;-72
2022/09/11 05:53:02;;;;;;;3.40;3.10;;;21.80;99.90;;;;;;4174807;28;20224;-72
2022/09/11 05:55:05;;;;;;;3.35;3.10;;;21.80;99.90;;;;;;4177758;28;20219;-72
2022/09/11 05:57:08;;;;;;;3.17;2.88;;;21.80;99.90;;;;;;4177914;28;20223;-71
2022/09/11 05:59:14;;;;;;;4.03;3.20;;;21.80;99.90;;;;;;4178433;28;20223;-72
2022/09/11 06:01:18;;;;;;;4.30;3.90;;;21.80;99.90;;;;;;4178349;28;20247;-72
2022/09/11 06:03:20;;;;;;;3.58;3.03;;;21.80;99.90;;;;;;4174253;28;20220;-72
2022/09/11 06:05:22;;;;;;;3.65;3.35;;;21.80;99.90;;;;;;4170986;28;20301;-72
2022/09/11 06:07:26;;;;;;;3.42;3.13;;;21.80;99.90;;;;;;4180187;28;20261;-72
2022/09/11 06:09:28;;;;;;;3.50;3.20;;;21.70;99.90;;;;;;4179427;28;20622;-72
2022/09/11 06:11:31;;;;;;;3.50;3.20;;;21.70;99.90;;;;;;4178413;28;20212;-72
2022/09/11 06:13:35;;;;;;;3.78;3.40;;;21.80;99.90;;;;;;4169480;28;20738;-72
2022/09/11 06:15:37;;;;;;;3.65;3.35;;;21.80;99.90;;;;;;4174212;28;20286;-72
2022/09/11 06:17:39;;;;;;;3.33;3.05;;;21.80;99.90;;;;;;4178237;28;20219;-72
2022/09/11 06:19:42;;;;;;;3.60;3.25;;;21.80;99.90;;;;;;4178483;28;21067;-72
2022/09/11 06:21:44;;;;;;;3.70;2.83;;;21.80;99.90;;;;;;4178012;28;20281;-72
2022/09/11 06:23:49;;;;;;;3.42;3.13;;;21.80;99.90;;;;;;4178136;28;20277;-72
2022/09/11 06:25:53;;;;;;;3.50;2.97;;;21.80;99.90;;;;;;4178030;28;20567;-72
2022/09/11 06:27:55;;;;;;;3.28;2.97;;;21.80;99.90;;;;;;4178004;28;20269;-72
2022/09/11 06:29:57;;;;;;;3.47;3.17;;;21.80;99.90;;;;;;4173423;28;20232;-72
2022/09/11 06:32:00;;;;;;;3.50;3.20;;;21.80;99.90;;;;;;4175125;28;20236;-72
2022/09/11 06:34:03;;;;;;;4.07;2.90;;;21.80;99.90;;;;;;4178465;28;20221;-72
2022/09/11 06:36:07;;;;;;;3.67;3.38;;;21.80;99.90;;;;;;4178384;28;20215;-72
2022/09/11 06:38:09;;;;;;;3.72;3.42;;;21.80;99.90;;;;;;4178386;28;20687;-72
2022/09/11 06:40:13;;;;;;;3.35;3.03;;;21.80;99.90;;;;;;4177769;28;20239;-72
2022/09/11 06:42:16;;;;;;;4.10;3.20;;;21.80;99.90;;;;;;4178002;28;20219;-72
2022/09/11 06:44:18;;;;;;;3.80;3.40;;;21.80;99.90;;;;;;4178019;28;20238;-72
2022/09/11 06:46:23;;;;;;;2.88;2.63;;;21.80;99.90;;;;;;4176767;28;20265;-72
2022/09/11 06:48:25;;;;;;;3.58;3.28;;;21.80;99.90;;;;;;4174751;28;20220;-72
2022/09/11 06:50:27;;;;;;;3.75;3.30;;;21.80;99.90;;;;;;4177167;28;20212;-72
2022/09/11 06:52:33;;;;;;;3.28;2.97;;;21.80;99.90;;;;;;4177249;28;20227;-72
2022/09/11 06:54:36;;;;;;;3.50;3.20;;;21.80;99.90;;;;;;4176460;28;20223;-72
2022/09/11 06:56:39;;;;;;;3.38;3.08;;;21.80;99.90;;;;;;4176748;28;20266;-72
2022/09/11 06:58:42;;;;;;;3.40;3.10;;;21.90;99.90;;;;;;4176970;28;20227;-72
2022/09/11 07:00:45;;;;;;;3.92;3.33;;;21.90;99.90;;;;;;4176787;28;20768;-72
2022/09/11 07:02:47;;;;;;;3.58;3.28;;;21.90;99.90;;;;;;4176842;28;20676;-72
2022/09/11 07:04:49;;;;;;;3.53;3.00;;;21.90;99.90;;;;;;4173604;28;20421;-72
2022/09/11 07:06:51;;;;;;;3.47;3.17;;;21.80;99.90;;;;;;4180307;28;20223;-72
2022/09/11 07:08:59;;;;;;;3.72;3.30;;;21.90;99.90;;;;;;4179847;28;20279;-72
2022/09/11 07:11:04;;;;;;;3.33;3.03;;;21.80;99.90;;;;;;4179547;28;20255;-72
2022/09/11 07:13:07;;;;;;;3.40;3.10;;;21.80;99.90;;;;;;4179879;28;20630;-72
2022/09/11 07:15:11;;;;;;;3.75;3.45;;;21.90;99.90;;;;;;4179586;28;20261;-72
2022/09/11 07:17:13;;;;;;;3.78;3.47;;;21.90;99.90;;;;;;4179620;28;20220;-72
2022/09/11 07:19:17;;;;;;;4.00;3.70;;;21.90;99.90;;;;;;4179644;28;20277;-72
2022/09/11 07:21:21;;;;;;;3.40;3.13;;;21.90;99.90;;;;;;4176289;28;20297;-72
2022/09/11 07:23:24;;;;;;;4.07;3.75;;;21.90;99.90;;;;;;4179873;28;20224;-72
2022/09/11 07:25:26;;;;;;;3.90;3.53;;;21.90;99.90;;;;;;4179787;28;20729;-72
2022/09/11 07:27:30;;;;;;;3.60;3.25;;;21.90;99.90;;;;;;4179777;28;20664;-72
2022/09/11 07:29:33;;;;;;;3.50;3.20;;;21.90;99.90;;;;;;4179596;28;20771;-72
2022/09/11 07:31:38;;;;;;;4.57;3.60;;;21.90;99.90;;;;;;4179706;28;20212;-72
2022/09/11 07:33:44;;;;;;;3.90;3.60;;;21.90;99.90;;;;;;4179452;28;20228;-72
2022/09/11 07:35:47;;;;;;;3.72;3.42;;;21.90;99.90;;;;;;4179680;28;20714;-72
2022/09/11 07:37:49;;;;;;;3.60;3.30;;;21.90;99.90;;;;;;4175779;28;20280;-72
2022/09/11 07:39:51;;;;;;;4.00;3.58;;;21.90;99.90;;;;;;4178274;28;20273;-72
2022/09/11 07:41:54;;;;;;;3.50;3.20;;;21.90;99.90;;;;;;4179215;28;20240;-72
2022/09/11 07:43:58;;;;;;;4.20;3.80;;;21.90;99.90;;;;;;4176749;28;20208;-72
2022/09/11 07:46:02;;;;;;;4.70;3.50;;;22.00;99.90;;;;;;4178594;28;20224;-72
2022/09/11 07:48:05;;;;;;;3.38;3.08;;;21.90;99.90;;;;;;4178893;28;21188;-72
2022/09/11 07:50:08;;;;;;;4.57;3.92;;;22.00;99.90;;;;;;4178416;28;20246;-72
2022/09/11 07:52:11;;;;;;;3.75;3.45;;;21.90;99.90;;;;;;4178988;28;20223;-72
2022/09/11 07:54:13;;;;;;;3.58;3.28;;;22.00;99.90;;;;;;4179225;28;20594;-72
2022/09/11 07:56:17;;;;;;;4.03;3.72;;;21.90;99.90;;;;;;4177439;28;20289;-72
2022/09/11 07:58:19;;;;;;;3.45;3.15;;;22.00;99.90;;;;;;4179032;28;20223;-72
2022/09/11 08:00:22;;;;;;;4.18;3.78;;;21.90;99.90;;;;;;4179058;28;20642;-72
2022/09/11 08:02:25;;;;;;;3.50;3.20;;;21.90;99.90;;;;;;4179075;28;20258;-72
2022/09/11 08:04:28;;;;;;;3.85;3.55;;;22.00;99.90;;;;;;4174314;28;20364;-72
2022/09/11 08:06:32;;;;;;;4.18;3.70;;;21.90;99.90;;;;;;4161123;28;20279;-72
2022/09/11 08:08:37;;;;;;;3.78;3.47;;;21.90;99.90;;;;;;4162447;28;20630;-72
2022/09/11 08:10:39;;;;;;;4.53;4.13;;;21.90;99.90;;;;;;4162318;28;20216;-72
2022/09/11 08:12:42;;;;;;;3.75;3.45;;;21.90;99.90;;;;;;4158694;28;20271;-72
2022/09/11 08:14:44;;;;;;;3.63;3.33;;;21.90;99.90;;;;;;4164505;28;20266;-72
2022/09/11 08:16:47;;;;;;;4.38;3.97;;;21.90;99.90;;;;;;4161394;28;20724;-72
2022/09/11 08:18:51;;;;;;;4.38;3.97;;;21.90;99.90;;;;;;4162009;28;20220;-72
2022/09/11 08:20:53;;;;;;;5.20;4.43;;;21.90;99.90;;;;;;4162491;28;20634;-72
2022/09/11 08:22:57;;;;;;;4.60;3.90;;;21.90;99.90;;;;;;4162393;28;20248;-72
2022/09/11 08:24:59;;;;;;;4.30;3.90;;;21.90;99.90;;;;;;4162527;28;20224;-72
2022/09/11 08:27:01;;;;;;;4.60;4.20;;;21.90;99.90;;;;;;4162676;28;20228;-72
2022/09/11 08:29:04;;;;;;;5.53;5.03;;;21.90;99.90;;;;;;4158972;28;20666;-72
2022/09/11 08:31:06;;;;;;;5.32;4.82;;;21.90;99.90;;;;;;4161901;28;20279;-72
2022/09/11 08:33:09;;;;;;;4.35;3.97;;;21.90;99.90;;;;;;4161678;28;20727;-72
2022/09/11 08:35:12;;;;;;;5.15;4.63;;;21.90;99.90;;;;;;4162120;28;20275;-72
2022/09/11 08:37:17;;;;;;;4.97;4.47;;;21.90;99.90;;;;;;4161860;28;20224;-72
2022/09/11 08:39:19;;;;;;;5.05;4.55;;;21.90;99.90;;;;;;4162333;28;20248;-72
2022/09/11 08:41:39;;;;;;;4.97;4.53;;;21.90;99.90;;;;;;4162003;28;20270;-72
2022/09/11 08:43:49;;;;;;;4.40;4.00;;;21.90;99.90;;;;;;4161175;28;20232;-72
2022/09/11 08:45:55;;;;;;;5.25;4.75;;;22.00;99.90;;;;;;4159130;28;20275;-72
2022/09/11 08:47:59;;;;;;;5.38;4.88;;;21.90;99.90;;;;;;4162989;28;20630;-72
2022/09/11 08:50:06;;;;;;;4.75;4.38;;;21.90;99.90;;;;;;4161434;28;20286;-72
2022/09/11 08:52:13;;;;;;;5.35;4.50;;;21.90;99.90;;;;;;4161543;28;20266;-72
2022/09/11 08:54:26;;;;;;;4.63;4.22;;;21.90;99.90;;;;;;4161573;28;20270;-72
2022/09/11 08:56:34;;;;;;;4.22;3.83;;;21.90;99.90;;;;;;4163934;28;20271;-72
2022/09/11 08:58:44;;;;;;;5.10;4.18;;;21.90;99.90;;;;;;4161445;28;20295;-72
2022/09/11 09:00:54;;;;;;;4.40;4.00;;;21.90;99.90;;;;;;4161264;28;20266;-72
2022/09/11 09:03:30;;;;;;;4.40;4.00;;;21.90;99.90;;;;;;4157533;28;20300;-72
2022/09/11 09:05:41;;;;;;;4.70;4.30;;;21.90;99.90;;;;;;4161122;28;20708;-72
2022/09/11 09:08:01;;;;;;;4.55;4.10;;;21.90;99.90;;;;;;4161423;28;20266;-72
2022/09/11 09:10:13;;;;;;;4.65;4.25;;;21.90;99.90;;;;;;4160978;28;20274;-72
2022/09/11 09:12:22;;;;;;;5.05;4.55;;;21.90;99.90;;;;;;4161043;28;20290;-72
2022/09/11 09:15:02;;;;;;;4.90;4.50;;;22.00;99.90;;;;;;4161811;28;20278;-72
2022/09/11 09:17:08;;;;;;;4.93;4.28;;;22.00;99.90;;;;;;4161383;28;20723;-72
2022/09/11 09:19:15;;;;;;;4.75;4.35;;;22.00;99.90;;;;;;4161193;28;20220;-72
2022/09/11 09:21:24;;;;;;;5.22;4.72;;;22.00;99.90;;;;;;4160579;28;20734;-72
2022/09/11 09:23:33;;;;;;;5.25;4.75;;;22.00;99.90;;;;;;4161230;28;20243;-72
2022/09/11 09:25:39;;;;;;;4.93;4.38;;;22.00;99.90;;;;;;4161194;28;20220;-72
2022/09/11 09:27:46;;;;;;;5.22;4.72;;;22.00;99.90;;;;;;4161404;28;20224;-73
2022/09/11 09:29:54;;;;;;;4.97;4.55;;;22.00;99.90;;;;;;4160468;28;20270;-73
2022/09/11 09:32:01;;;;;;;4.97;4.47;;;22.00;99.90;;;;;;4161912;28;20219;-72
2022/09/11 09:34:11;;;;;;;5.82;4.57;;;22.00;99.90;;;;;;4162119;28;20220;-72
2022/09/11 09:36:17;;;;;;;5.35;4.85;;;22.00;99.90;;;;;;4160921;28;20303;-72
2022/09/11 09:38:22;;;;;;;5.40;4.90;;;22.00;99.90;;;;;;4157229;28;20224;-72
2022/09/11 09:40:28;;;;;;;5.43;4.80;;;22.00;99.90;;;;;;4161211;28;20270;-72
2022/09/11 09:43:11;;;;;;;5.40;4.90;;;22.00;99.90;;;;;;4160712;28;20291;-72
2022/09/11 09:45:26;;;;;;;5.13;4.63;;;22.00;99.90;;;;;;4139754;28;20246;-72
2022/09/11 09:47:29;;;;;;;4.82;4.43;;;22.00;99.90;;;;;;4160029;28;20220;-72
2022/09/11 09:49:34;;;;;;;5.35;4.85;;;22.00;99.90;;;;;;4160419;28;20224;-72
2022/09/11 09:51:38;;;;;;;5.80;5.22;;;22.00;99.90;;;;;;4160130;28;20220;-72
2022/09/11 09:53:45;;;;;;;5.65;5.15;;;22.00;99.90;;;;;;4158474;28;20228;-72
2022/09/11 09:55:51;;;;;;;5.47;4.97;;;22.00;99.90;;;;;;4160334;28;20224;-72
2022/09/11 09:57:54;;;;;;;5.22;4.80;;;22.00;99.90;;;;;;4160871;28;20232;-73
2022/09/11 10:00:01;;;;;;;5.55;4.82;;;22.00;99.90;;;;;;4160815;28;20304;-72
2022/09/11 10:02:03;;;;;;;5.28;4.78;;;22.00;99.90;;;;;;4160642;28;20216;-72
2022/09/11 10:04:11;;;;;;;5.55;5.15;;;22.10;99.90;;;;;;4160334;28;20220;-72
2022/09/11 10:06:13;;;;;;;4.90;4.43;;;22.10;99.90;;;;;;4159827;28;20269;-72
2022/09/11 10:08:32;;;;;;;5.63;5.13;;;22.10;99.90;;;;;;4160591;28;20323;-72
2022/09/11 10:10:36;;;;;;;5.30;4.80;;;22.10;99.90;;;;;;4159089;28;20220;-72
2022/09/11 10:12:45;;;;;;;5.18;4.68;;;22.10;99.90;;;;;;4158144;28;20213;-72
2022/09/11 10:14:53;;;;;;;6.45;5.80;;;22.10;99.90;;;;;;4159602;28;20220;-72
2022/09/11 10:16:55;;;;;;;6.00;5.45;;;22.10;99.90;;;;;;4160188;28;20223;-72
2022/09/11 10:18:57;;;;;;;4.95;4.55;;;22.10;99.90;;;;;;4160510;28;20217;-73
2022/09/11 10:21:21;;;;;;;5.10;4.65;;;22.10;99.90;;;;;;4160387;28;20279;-72
2022/09/11 10:23:25;;;;;;;4.85;4.45;;;22.10;99.90;;;;;;4160154;28;20248;-72
2022/09/11 10:25:28;;;;;;;5.07;4.68;;;22.10;99.90;;;;;;4159543;28;20691;-72
2022/09/11 10:27:38;;;;;;;5.72;5.22;;;22.10;99.90;;;;;;4159133;28;20669;-73
2022/09/11 10:29:49;;;;;;;5.30;4.85;;;22.10;99.90;;;;;;4154149;28;20631;-72
2022/09/11 10:31:53;;;;;;;5.13;4.65;;;22.10;99.90;;;;;;4159274;28;20220;-72
2022/09/11 10:33:58;;;;;;;5.30;4.80;;;22.10;99.90;;;;;;4160365;28;20274;-72
2022/09/11 10:36:03;;;;;;;5.10;4.65;;;22.10;99.90;;;;;;4153323;28;20784;-72
2022/09/11 10:38:17;;;;;;;6.10;5.32;;;22.10;99.90;;;;;;4158699;28;20253;-72
2022/09/11 10:40:22;;;;;;;4.95;4.55;;;22.10;99.90;;;;;;4160765;28;20224;-72
2022/09/11 10:42:27;;;;;;;5.20;4.70;;;22.10;99.90;;;;;;4160512;28;20224;-72
2022/09/11 10:44:29;;;;;;;4.72;4.32;;;22.10;99.90;;;;;;4159955;28;20258;-72
2022/09/11 10:46:36;;;;;;;5.28;4.78;;;22.10;99.90;;;;;;4162930;28;20220;-72
2022/09/11 10:48:41;;;;;;;4.93;4.53;;;22.10;99.90;;;;;;4162170;28;20274;-73
2022/09/11 10:50:44;;;;;;;4.90;4.50;;;22.10;99.90;;;;;;4160560;28;20656;-72
2022/09/11 10:52:58;;;;;;;5.15;4.75;;;22.10;99.90;;;;;;4160145;28;20217;-72
2022/09/11 10:55:05;;;;;;;4.85;4.40;;;22.10;99.90;;;;;;4163302;28;20272;-72